sensor_id;sensor_type;location;lat;lon;timestamp;pressure;altitude;pressure_sealevel;temperature;humidity
82325;BME280;71930;47.430;18.912;2023-07-31T16:55:59;99221.44;;;24.63;35.60
82325;BME280;71930;47.430;18.912;2023-07-31T16:58:25;99225.38;;;24.49;36.42
82325;BME280;71930;47.430;18.912;2023-07-31T17:00:50;99233.91;;;24.69;35.98
82325;BME280;71930;47.430;18.912;2023-07-31T17:03:15;99224.78;;;24.83;36.11
82325;BME280;71930;47.430;18.912;2023-07-31T17:05:41;99223.78;;;24.56;35.84
82325;BME280;71930;47.430;18.912;2023-07-31T17:08:06;99230.06;;;24.48;36.63
82325;BME280;71930;47.430;18.912;2023-07-31T17:10:31;99237.56;;;24.65;36.74
82325;BME280;71930;47.430;18.912;2023-07-31T17:12:56;99233.03;;;24.60;36.79
82325;BME280;71930;47.430;18.912;2023-07-31T17:15:22;99246.16;;;24.41;36.84
82325;BME280;71930;47.430;18.912;2023-07-31T17:17:51;99240.09;;;24.53;37.02
82325;BME280;71930;47.430;18.912;2023-07-31T17:20:16;99243.81;;;24.48;37.34
82325;BME280;71930;47.430;18.912;2023-07-31T17:22:42;99244.16;;;24.55;36.97
82325;BME280;71930;47.430;18.912;2023-07-31T17:25:09;99246.00;;;24.68;37.16
82325;BME280;71930;47.430;18.912;2023-07-31T17:27:34;99246.66;;;24.74;37.15
82325;BME280;71930;47.430;18.912;2023-07-31T17:30:00;99251.03;;;24.44;37.91
82325;BME280;71930;47.430;18.912;2023-07-31T17:32:25;99253.78;;;24.44;38.07
82325;BME280;71930;47.430;18.912;2023-07-31T17:34:51;99248.41;;;24.39;38.85
82325;BME280;71930;47.430;18.912;2023-07-31T17:37:16;99249.44;;;24.52;38.48
82325;BME280;71930;47.430;18.912;2023-07-31T17:39:41;99252.59;;;24.67;38.36
82325;BME280;71930;47.430;18.912;2023-07-31T17:42:07;99251.53;;;24.77;38.64
82325;BME280;71930;47.430;18.912;2023-07-31T17:44:32;99251.84;;;24.45;38.71
82325;BME280;71930;47.430;18.912;2023-07-31T17:46:57;99250.75;;;24.54;38.92
82325;BME280;71930;47.430;18.912;2023-07-31T17:49:22;99242.72;;;24.58;39.00
82325;BME280;71930;47.430;18.912;2023-07-31T17:51:48;99236.44;;;24.66;39.74
82325;BME280;71930;47.430;18.912;2023-07-31T17:54:13;99245.31;;;24.63;39.60
82325;BME280;71930;47.430;18.912;2023-07-31T17:56:38;99240.78;;;24.58;40.34
82325;BME280;71930;47.430;18.912;2023-07-31T17:59:06;99233.78;;;24.52;40.93
82325;BME280;71930;47.430;18.912;2023-07-31T18:01:32;99237.50;;;24.48;39.95
82325;BME280;71930;47.430;18.912;2023-07-31T18:03:57;99236.13;;;24.37;39.65
82325;BME280;71930;47.430;18.912;2023-07-31T18:06:22;99239.44;;;24.03;39.34
82325;BME280;71930;47.430;18.912;2023-07-31T18:08:47;99246.00;;;24.16;39.89
82325;BME280;71930;47.430;18.912;2023-07-31T18:11:13;99255.47;;;24.32;39.90
82325;BME280;71930;47.430;18.912;2023-07-31T18:13:39;99255.22;;;24.20;40.92
82325;BME280;71930;47.430;18.912;2023-07-31T18:16:04;99257.47;;;24.18;40.88
82325;BME280;71930;47.430;18.912;2023-07-31T18:18:29;99254.50;;;23.92;40.27
82325;BME280;71930;47.430;18.912;2023-07-31T18:20:55;99253.16;;;24.03;40.28
82325;BME280;71930;47.430;18.912;2023-07-31T18:23:20;99253.03;;;24.08;39.86
82325;BME280;71930;47.430;18.912;2023-07-31T18:25:46;99252.22;;;24.07;40.51
82325;BME280;71930;47.430;18.912;2023-07-31T18:28:12;99253.56;;;24.10;40.07
82325;BME280;71930;47.430;18.912;2023-07-31T18:30:37;99251.38;;;23.85;42.01
82325;BME280;71930;47.430;18.912;2023-07-31T18:33:02;99253.00;;;23.86;41.97
82325;BME280;71930;47.430;18.912;2023-07-31T18:35:27;99268.06;;;23.75;42.36
82325;BME280;71930;47.430;18.912;2023-07-31T18:37:53;99264.81;;;23.73;41.32
82325;BME280;71930;47.430;18.912;2023-07-31T18:40:18;99270.91;;;23.70;41.72
82325;BME280;71930;47.430;18.912;2023-07-31T18:42:45;99266.06;;;23.67;40.70
82325;BME280;71930;47.430;18.912;2023-07-31T18:45:10;99266.91;;;23.53;40.75
82325;BME280;71930;47.430;18.912;2023-07-31T18:47:36;99259.81;;;23.52;40.45
82325;BME280;71930;47.430;18.912;2023-07-31T18:50:01;99263.88;;;23.55;41.32
82325;BME280;71930;47.430;18.912;2023-07-31T18:52:26;99257.25;;;23.56;42.02
82325;BME280;71930;47.430;18.912;2023-07-31T18:54:52;99261.03;;;23.46;41.44
82325;BME280;71930;47.430;18.912;2023-07-31T18:57:17;99261.13;;;23.55;41.46
82325;BME280;71930;47.430;18.912;2023-07-31T18:59:42;99272.88;;;23.56;40.91
82325;BME280;71930;47.430;18.912;2023-07-31T19:02:07;99274.41;;;23.48;41.33
82325;BME280;71930;47.430;18.912;2023-07-31T19:04:33;99268.44;;;23.46;41.33
82325;BME280;71930;47.430;18.912;2023-07-31T19:07:01;99265.09;;;23.49;41.13
82325;BME280;71930;47.430;18.912;2023-07-31T19:09:30;99272.28;;;23.31;41.71
82325;BME280;71930;47.430;18.912;2023-07-31T19:11:58;99269.53;;;23.31;41.69
82325;BME280;71930;47.430;18.912;2023-07-31T19:14:23;99284.84;;;23.32;41.26
82325;BME280;71930;47.430;18.912;2023-07-31T19:16:49;99277.56;;;23.28;41.25
82325;BME280;71930;47.430;18.912;2023-07-31T19:19:14;99281.72;;;23.25;41.63
82325;BME280;71930;47.430;18.912;2023-07-31T19:21:40;99278.56;;;23.32;41.71
82325;BME280;71930;47.430;18.912;2023-07-31T19:24:05;99276.75;;;23.27;41.40
82325;BME280;71930;47.430;18.912;2023-07-31T19:26:31;99274.41;;;23.21;41.68
82325;BME280;71930;47.430;18.912;2023-07-31T19:28:56;99272.09;;;23.14;41.50
82325;BME280;71930;47.430;18.912;2023-07-31T19:31:21;99269.47;;;23.09;41.96
82325;BME280;71930;47.430;18.912;2023-07-31T19:33:46;99276.25;;;22.98;41.99
82325;BME280;71930;47.430;18.912;2023-07-31T19:36:11;99275.16;;;22.99;42.41
82325;BME280;71930;47.430;18.912;2023-07-31T19:38:37;99286.59;;;23.15;41.68
82325;BME280;71930;47.430;18.912;2023-07-31T19:41:02;99270.06;;;23.20;42.29
82325;BME280;71930;47.430;18.912;2023-07-31T19:43:28;99280.53;;;23.18;42.03
82325;BME280;71930;47.430;18.912;2023-07-31T19:45:53;99286.00;;;23.18;42.05
82325;BME280;71930;47.430;18.912;2023-07-31T19:48:19;99290.06;;;23.20;42.83
82325;BME280;71930;47.430;18.912;2023-07-31T19:50:46;99286.19;;;23.21;43.30
82325;BME280;71930;47.430;18.912;2023-07-31T19:53:12;99288.41;;;22.92;44.26
82325;BME280;71930;47.430;18.912;2023-07-31T19:55:37;99292.28;;;22.91;44.13
82325;BME280;71930;47.430;18.912;2023-07-31T19:58:02;99293.59;;;22.80;43.54
82325;BME280;71930;47.430;18.912;2023-07-31T20:00:28;99288.03;;;22.53;44.83
82325;BME280;71930;47.430;18.912;2023-07-31T20:02:53;99282.81;;;22.38;45.00
82325;BME280;71930;47.430;18.912;2023-07-31T20:05:18;99282.56;;;22.53;45.06
82325;BME280;71930;47.430;18.912;2023-07-31T20:07:44;99274.44;;;22.48;44.84
82325;BME280;71930;47.430;18.912;2023-07-31T20:10:09;99280.00;;;22.43;45.46
82325;BME280;71930;47.430;18.912;2023-07-31T20:12:34;99275.94;;;22.40;45.52
82325;BME280;71930;47.430;18.912;2023-07-31T20:15:03;99272.72;;;22.38;45.70
82325;BME280;71930;47.430;18.912;2023-07-31T20:17:29;99271.44;;;22.30;46.10
82325;BME280;71930;47.430;18.912;2023-07-31T20:19:55;99278.28;;;22.14;46.86
82325;BME280;71930;47.430;18.912;2023-07-31T20:22:21;99282.56;;;22.20;46.64
82325;BME280;71930;47.430;18.912;2023-07-31T20:24:46;99282.88;;;22.19;46.72
82325;BME280;71930;47.430;18.912;2023-07-31T20:27:17;99277.09;;;22.20;46.39
82325;BME280;71930;47.430;18.912;2023-07-31T20:29:43;99282.13;;;22.13;46.60
82325;BME280;71930;47.430;18.912;2023-07-31T20:32:08;99282.94;;;22.14;46.44
82325;BME280;71930;47.430;18.912;2023-07-31T20:34:34;99281.31;;;22.13;46.64
82325;BME280;71930;47.430;18.912;2023-07-31T20:36:59;99276.59;;;21.81;47.75
82325;BME280;71930;47.430;18.912;2023-07-31T20:39:24;99272.47;;;21.23;49.31
82325;BME280;71930;47.430;18.912;2023-07-31T20:41:49;99281.91;;;21.11;49.38
82325;BME280;71930;47.430;18.912;2023-07-31T20:44:17;99279.28;;;21.25;48.99
82325;BME280;71930;47.430;18.912;2023-07-31T20:46:42;99272.22;;;20.72;50.86
82325;BME280;71930;47.430;18.912;2023-07-31T20:49:07;99278.44;;;21.01;50.03
82325;BME280;71930;47.430;18.912;2023-07-31T20:51:32;99282.72;;;21.12;49.56
82325;BME280;71930;47.430;18.912;2023-07-31T20:53:59;99281.75;;;21.22;50.09
82325;BME280;71930;47.430;18.912;2023-07-31T20:56:25;99274.56;;;21.31;49.72
82325;BME280;71930;47.430;18.912;2023-07-31T20:58:50;99273.06;;;21.20;49.78
82325;BME280;71930;47.430;18.912;2023-07-31T21:01:15;99274.13;;;21.24;49.86
82325;BME280;71930;47.430;18.912;2023-07-31T21:03:40;99265.31;;;21.03;50.27
82325;BME280;71930;47.430;18.912;2023-07-31T21:06:06;99259.41;;;21.20;50.26
82325;BME280;71930;47.430;18.912;2023-07-31T21:08:31;99262.97;;;21.20;50.12
82325;BME280;71930;47.430;18.912;2023-07-31T21:10:56;99266.91;;;20.85;50.83
82325;BME280;71930;47.430;18.912;2023-07-31T21:13:22;99250.53;;;21.09;50.14
82325;BME280;71930;47.430;18.912;2023-07-31T21:15:47;99257.19;;;21.22;50.12
82325;BME280;71930;47.430;18.912;2023-07-31T21:18:13;99252.72;;;21.31;49.90
82325;BME280;71930;47.430;18.912;2023-07-31T21:20:45;99247.13;;;21.41;49.79
82325;BME280;71930;47.430;18.912;2023-07-31T21:23:12;99247.03;;;21.27;50.21
82325;BME280;71930;47.430;18.912;2023-07-31T21:25:37;99249.47;;;21.29;50.05
82325;BME280;71930;47.430;18.912;2023-07-31T21:28:02;99260.31;;;21.15;50.14
82325;BME280;71930;47.430;18.912;2023-07-31T21:30:29;99263.41;;;21.27;50.09
82325;BME280;71930;47.430;18.912;2023-07-31T21:32:56;99248.59;;;21.33;50.19
82325;BME280;71930;47.430;18.912;2023-07-31T21:35:21;99253.16;;;21.38;50.22
82325;BME280;71930;47.430;18.912;2023-07-31T21:37:46;99249.84;;;21.41;50.36
82325;BME280;71930;47.430;18.912;2023-07-31T21:40:13;99250.94;;;21.40;50.24
82325;BME280;71930;47.430;18.912;2023-07-31T21:42:38;99251.50;;;21.42;50.23
82325;BME280;71930;47.430;18.912;2023-07-31T21:45:04;99249.78;;;21.46;50.09
82325;BME280;71930;47.430;18.912;2023-07-31T21:47:30;99250.81;;;21.50;50.18
82325;BME280;71930;47.430;18.912;2023-07-31T21:49:55;99251.34;;;21.52;50.11
82325;BME280;71930;47.430;18.912;2023-07-31T21:52:21;99252.44;;;21.51;50.28
82325;BME280;71930;47.430;18.912;2023-07-31T21:54:46;99245.38;;;21.50;49.78
82325;BME280;71930;47.430;18.912;2023-07-31T21:57:11;99238.84;;;21.46;49.94
82325;BME280;71930;47.430;18.912;2023-07-31T21:59:37;99241.66;;;21.41;50.35
82325;BME280;71930;47.430;18.912;2023-07-31T22:02:03;99239.31;;;21.34;50.57
82325;BME280;71930;47.430;18.912;2023-07-31T22:04:29;99237.66;;;21.14;50.84
82325;BME280;71930;47.430;18.912;2023-07-31T22:06:54;99234.84;;;21.20;50.96
82325;BME280;71930;47.430;18.912;2023-07-31T22:09:19;99232.69;;;21.17;50.82
82325;BME280;71930;47.430;18.912;2023-07-31T22:11:45;99228.56;;;20.72;51.73
82325;BME280;71930;47.430;18.912;2023-07-31T22:14:10;99231.25;;;20.53;52.38
82325;BME280;71930;47.430;18.912;2023-07-31T22:16:35;99227.56;;;20.63;52.13
82325;BME280;71930;47.430;18.912;2023-07-31T22:19:02;99230.56;;;20.66;52.15
82325;BME280;71930;47.430;18.912;2023-07-31T22:21:27;99230.56;;;20.66;51.74
82325;BME280;71930;47.430;18.912;2023-07-31T22:23:52;99224.41;;;20.55;52.06
82325;BME280;71930;47.430;18.912;2023-07-31T22:26:17;99219.25;;;20.54;52.51
82325;BME280;71930;47.430;18.912;2023-07-31T22:28:43;99217.78;;;20.38;52.81
82325;BME280;71930;47.430;18.912;2023-07-31T22:31:08;99216.28;;;20.50;52.63
82325;BME280;71930;47.430;18.912;2023-07-31T22:33:35;99209.56;;;19.75;54.61
82325;BME280;71930;47.430;18.912;2023-07-31T22:36:00;99215.03;;;19.70;54.79
82325;BME280;71930;47.430;18.912;2023-07-31T22:38:25;99205.56;;;19.96;54.01
82325;BME280;71930;47.430;18.912;2023-07-31T22:40:51;99205.66;;;19.86;54.40
82325;BME280;71930;47.430;18.912;2023-07-31T22:43:16;99204.53;;;19.92;54.23
82325;BME280;71930;47.430;18.912;2023-07-31T22:45:45;99195.59;;;19.87;54.69
82325;BME280;71930;47.430;18.912;2023-07-31T22:48:11;99204.00;;;19.90;54.05
82325;BME280;71930;47.430;18.912;2023-07-31T22:50:36;99194.59;;;20.07;53.32
82325;BME280;71930;47.430;18.912;2023-07-31T22:53:02;99198.94;;;20.08;53.36
82325;BME280;71930;47.430;18.912;2023-07-31T22:55:27;99197.84;;;20.09;53.15
82325;BME280;71930;47.430;18.912;2023-07-31T22:57:54;99191.06;;;20.06;53.17
82325;BME280;71930;47.430;18.912;2023-07-31T23:00:19;99184.13;;;20.19;52.68
82325;BME280;71930;47.430;18.912;2023-07-31T23:02:44;99185.97;;;20.28;52.37
82325;BME280;71930;47.430;18.912;2023-07-31T23:05:10;99189.69;;;20.37;52.49
82325;BME280;71930;47.430;18.912;2023-07-31T23:07:35;99186.59;;;20.49;51.63
82325;BME280;71930;47.430;18.912;2023-07-31T23:10:00;99187.38;;;20.49;52.44
82325;BME280;71930;47.430;18.912;2023-07-31T23:12:27;99179.94;;;20.55;52.11
82325;BME280;71930;47.430;18.912;2023-07-31T23:14:52;99182.59;;;20.36;52.83
82325;BME280;71930;47.430;18.912;2023-07-31T23:17:17;99174.56;;;20.50;52.59
82325;BME280;71930;47.430;18.912;2023-07-31T23:19:43;99174.22;;;20.57;52.18
82325;BME280;71930;47.430;18.912;2023-07-31T23:22:08;99168.41;;;20.63;52.27
82325;BME280;71930;47.430;18.912;2023-07-31T23:24:34;99169.28;;;20.59;52.22
82325;BME280;71930;47.430;18.912;2023-07-31T23:26:59;99161.28;;;20.67;52.06
82325;BME280;71930;47.430;18.912;2023-07-31T23:29:24;99160.91;;;20.74;51.94
82325;BME280;71930;47.430;18.912;2023-07-31T23:31:49;99157.31;;;20.78;52.00
82325;BME280;71930;47.430;18.912;2023-07-31T23:34:15;99156.72;;;20.81;51.80
82325;BME280;71930;47.430;18.912;2023-07-31T23:36:41;99152.59;;;20.84;51.67
82325;BME280;71930;47.430;18.912;2023-07-31T23:39:07;99152.91;;;20.82;51.57
82325;BME280;71930;47.430;18.912;2023-07-31T23:41:32;99144.25;;;20.75;51.89
82325;BME280;71930;47.430;18.912;2023-07-31T23:43:58;99144.84;;;20.72;52.03
82325;BME280;71930;47.430;18.912;2023-07-31T23:46:24;99145.44;;;20.69;51.97
82325;BME280;71930;47.430;18.912;2023-07-31T23:48:49;99137.56;;;20.68;51.69
82325;BME280;71930;47.430;18.912;2023-07-31T23:51:14;99134.81;;;20.68;51.76
82325;BME280;71930;47.430;18.912;2023-07-31T23:53:40;99134.81;;;20.68;52.00
82325;BME280;71930;47.430;18.912;2023-07-31T23:56:06;99136.44;;;20.69;51.79
82325;BME280;71930;47.430;18.912;2023-07-31T23:58:32;99133.44;;;20.70;51.45
